首页
METAR-TAF:

METAR-TAF

机场 :

New Richmond Regional Airport

New Richmond, 威斯康辛州, 美国

纬度: 45-08-54N, 经度: 092-32-17W, 海拔: 304米

当前天气观测

该预报发布于32分钟前的01:55 UTC
风速4节,风向西南
温度 -14°C
湿度 85%
气压 1037 hPa
能見度: 16.1公里
天空无云

METAR: KRNH 210155Z AUTO 22004KT 10SM CLR M14/M16 A3061 RMK AO2 T11401163

时间: 20:27 (02:27 UTC)

预报

该预报发布于3小时和7分钟前的23:20 UTC
预报有效从21日的 00点(UTC)到 21日的 24点(UTC)
风速4节,风向南转西南
能見度: 10公里
天空无云
从 21日的 0900点(UTC)
风速5节,风向
能見度: 10公里
天空无云
从 21日的 1600点(UTC)
风速11节,风向,有时为17节阵风
能見度: 10公里
天空无云

TAF: KRNH 202320Z 2100/2124 21004KT P6SM SKC FM210900 19005KT P6SM SKC FM211600 19011G17KT P6SM SKC

超过4000个机场的气象观测和天气预报(METAR&TAF报告)。

可查询的气象台以黄色和红色小点在地图上表示。

将鼠标移到小点上方,可查看气象台名称。

然后点击查看天气观测和预报。

如需切换地图:点击带黑十字的绿色按钮放大地图;点击带横线的绿色按钮缩小地图;或者点击绿色箭头查看邻近地区的地图。


METAR-TAF: